Time;durP1;ratioP1;P1;durP2;ratioP2;P2;SDS_P1;SDS_P2;PMS_P1;PMS_P2;Temp;Humidity;BMP_temperature;BMP_pressure;BME280_temperature;BME280_humidity;BME280_pressure;Samples;Min_cycle;Max_cycle;Signal;HPM_P1;HPM_P2
2022/02/20 00:03:22;;;;;;;7.67;1.50;;;;;7.20;100728.00;;;;10030227;29;20241;-79
2022/02/20 00:08:25;;;;;;;6.67;1.70;;;;;7.10;100722.00;;;;9992259;29;20738;-79
2022/02/20 00:13:27;;;;;;;15.97;2.00;;;;;7.10;100734.00;;;;10021863;29;20205;-78
2022/02/20 00:18:29;;;;;;;4.87;1.37;;;;;7.00;100735.00;;;;10043380;29;20261;-79
2022/02/20 00:23:31;;;;;;;7.30;1.60;;;;;6.90;100752.00;;;;10057348;29;20712;-78
2022/02/20 00:28:33;;;;;;;3.87;1.63;;;;;6.80;100758.00;;;;10019781;29;20232;-78
2022/02/20 00:33:36;;;;;;;10.03;1.80;;;;;6.80;100775.00;;;;10001882;29;20232;-79
2022/02/20 00:38:38;;;;;;;8.63;1.60;;;;;6.80;100773.00;;;;10014378;29;20284;-78
2022/02/20 00:43:40;;;;;;;10.53;1.60;;;;;6.80;100777.00;;;;10029537;29;20338;-78
2022/02/20 00:48:42;;;;;;;4.87;1.43;;;;;6.80;100777.00;;;;10028331;29;20230;-78
2022/02/20 00:53:44;;;;;;;9.10;1.43;;;;;6.80;100764.00;;;;10029200;29;20198;-78
2022/02/20 00:58:46;;;;;;;8.47;1.43;;;;;6.80;100783.00;;;;10013981;29;20257;-78
2022/02/20 01:03:50;;;;;;;5.27;1.43;;;;;6.90;100794.00;;;;10028083;29;20307;-78
2022/02/20 01:08:53;;;;;;;8.03;1.50;;;;;6.70;100800.00;;;;10006516;29;20209;-78
2022/02/20 01:13:55;;;;;;;2.90;1.10;;;;;6.50;100792.00;;;;9975118;29;20292;-79
2022/02/20 01:18:58;;;;;;;7.47;1.40;;;;;6.40;100784.00;;;;10003683;29;20201;-78
2022/02/20 01:24:02;;;;;;;4.73;1.47;;;;;6.30;100793.00;;;;10045038;29;20228;-78
2022/02/20 01:29:04;;;;;;;9.60;1.20;;;;;6.20;100798.00;;;;10028498;29;20590;-78
2022/02/20 01:34:06;;;;;;;4.93;2.00;;;;;6.10;100799.00;;;;10026668;29;20300;-78
2022/02/20 01:39:08;;;;;;;6.07;1.60;;;;;5.90;100801.00;;;;10029384;29;20293;-78
2022/02/20 01:44:10;;;;;;;6.93;1.37;;;;;5.70;100796.00;;;;10027910;29;20233;-78
2022/02/20 01:49:18;;;;;;;6.67;1.33;;;;;5.60;100782.00;;;;10010694;29;20209;-79
2022/02/20 01:54:22;;;;;;;7.33;2.20;;;;;5.60;100793.00;;;;10013806;29;20197;-78
2022/02/20 01:59:25;;;;;;;9.80;1.70;;;;;5.60;100787.00;;;;10032987;29;20201;-78
2022/02/20 02:04:47;;;;;;;5.73;2.17;;;;;5.50;100790.00;;;;10037406;29;20205;-78
2022/02/20 02:09:50;;;;;;;11.30;1.60;;;;;5.40;100779.00;;;;10049535;29;20248;-78
2022/02/20 02:15:19;;;;;;;5.03;1.57;;;;;5.40;100769.00;;;;10022315;29;20292;-78
2022/02/20 02:20:39;;;;;;;7.30;1.80;;;;;5.40;100774.00;;;;10051952;29;20196;-78
2022/02/20 02:25:49;;;;;;;11.27;1.47;;;;;5.20;100761.00;;;;10033178;29;20299;-78
2022/02/20 02:31:12;;;;;;;9.63;1.73;;;;;5.20;100750.00;;;;10020948;29;20221;-78
2022/02/20 02:36:16;;;;;;;7.37;2.10;;;;;5.20;100734.00;;;;10032994;29;20293;-78
2022/02/20 02:41:17;;;;;;;9.80;1.80;;;;;5.20;100737.00;;;;10017942;29;20197;-79
2022/02/20 02:46:26;;;;;;;11.00;2.17;;;;;5.40;100735.00;;;;10032283;29;20196;-78
2022/02/20 02:51:30;;;;;;;8.40;2.03;;;;;5.50;100743.00;;;;10033124;29;20217;-78
2022/02/20 02:56:34;;;;;;;17.30;3.03;;;;;5.80;100738.00;;;;10017714;29;20217;-78
2022/02/20 03:01:36;;;;;;;19.07;3.60;;;;;6.10;100731.00;;;;10030692;29;20291;-78
2022/02/20 03:06:40;;;;;;;28.00;4.07;;;;;6.30;100729.00;;;;10016082;29;20304;-78
2022/02/20 03:11:45;;;;;;;19.73;3.83;;;;;6.50;100720.00;;;;10030341;29;20205;-79
2022/02/20 03:16:53;;;;;;;21.67;3.93;;;;;6.60;100697.00;;;;10016703;29;20304;-79
2022/02/20 03:21:56;;;;;;;21.37;4.03;;;;;6.70;100675.00;;;;10015883;29;20231;-77
2022/02/20 03:26:58;;;;;;;31.77;5.70;;;;;6.80;100677.00;;;;10031211;29;20193;-78
2022/02/20 03:32:07;;;;;;;34.63;5.90;;;;;6.80;100657.00;;;;10031411;29;20209;-78
2022/02/20 03:37:09;;;;;;;33.20;6.53;;;;;6.90;100648.00;;;;10016375;29;20204;-78
2022/02/20 03:42:11;;;;;;;27.60;5.03;;;;;6.90;100634.00;;;;10031778;29;20233;-78
2022/02/20 03:47:34;;;;;;;32.27;6.37;;;;;7.00;100630.00;;;;10018798;29;20197;-78
2022/02/20 03:52:37;;;;;;;31.57;5.90;;;;;7.10;100628.00;;;;10016029;29;20300;-78
2022/02/20 03:57:41;;;;;;;27.23;5.60;;;;;7.20;100625.00;;;;10014700;29;20333;-78
2022/02/20 04:02:50;;;;;;;32.40;5.27;;;;;7.20;100633.00;;;;10045664;29;20197;-78
2022/02/20 04:07:52;;;;;;;33.70;5.50;;;;;7.30;100629.00;;;;10031015;29;20553;-78
2022/02/20 04:12:57;;;;;;;29.60;6.00;;;;;7.40;100613.00;;;;10030850;29;20249;-78
2022/02/20 04:18:07;;;;;;;28.23;5.07;;;;;7.60;100622.00;;;;10015467;29;20276;-78
2022/02/20 04:23:09;;;;;;;27.77;5.07;;;;;7.60;100583.00;;;;10014563;29;20225;-78
2022/02/20 04:28:11;;;;;;;32.40;5.10;;;;;7.70;100591.00;;;;10029710;29;20228;-78
2022/02/20 04:33:14;;;;;;;25.23;4.87;;;;;7.80;100621.00;;;;10046098;29;20212;-78
2022/02/20 04:38:16;;;;;;;35.97;4.87;;;;;7.90;100566.00;;;;9992291;29;20214;-78
2022/02/20 04:43:19;;;;;;;26.97;4.97;;;;;8.00;100570.00;;;;10014105;29;20289;-78
2022/02/20 04:48:24;;;;;;;25.03;4.30;;;;;8.00;100552.00;;;;10014670;29;20292;-78
2022/02/20 04:53:28;;;;;;;22.80;4.37;;;;;8.10;100548.00;;;;10013741;29;20209;-78
2022/02/20 04:58:32;;;;;;;27.50;4.83;;;;;8.20;100547.00;;;;10045064;29;20193;-78
2022/02/20 05:03:37;;;;;;;31.37;4.83;;;;;8.20;100534.00;;;;10028731;29;20276;-78
2022/02/20 05:09:05;;;;;;;18.30;4.13;;;;;8.10;100516.00;;;;10028748;29;20201;-78
2022/02/20 05:14:17;;;;;;;24.53;4.30;;;;;8.10;100519.00;;;;10012966;29;20213;-78
2022/02/20 05:19:21;;;;;;;20.47;3.97;;;;;8.10;100505.00;;;;10029005;29;20201;-78
2022/02/20 05:24:30;;;;;;;21.53;4.50;;;;;8.10;100512.00;;;;10014485;29;20293;-79
2022/02/20 05:29:32;;;;;;;26.53;4.37;;;;;8.20;100502.00;;;;10024988;29;20668;-78
2022/02/20 05:34:37;;;;;;;19.43;3.70;;;;;8.40;100487.00;;;;10018903;29;20233;-78
2022/02/20 05:39:39;;;;;;;20.30;4.37;;;;;8.40;100479.00;;;;10036857;29;20288;-79
2022/02/20 05:44:41;;;;;;;19.30;3.97;;;;;8.40;100476.00;;;;10035033;29;20236;-78
2022/02/20 05:49:43;;;;;;;21.30;6.00;;;;;8.40;100452.00;;;;10003954;29;20201;-78
2022/02/20 05:54:45;;;;;;;21.00;4.50;;;;;8.50;100463.00;;;;10012460;29;20228;-79
2022/02/20 05:59:49;;;;;;;16.50;3.10;;;;;8.50;100476.00;;;;10042302;29;20596;-78
2022/02/20 06:04:51;;;;;;;23.30;4.00;;;;;8.50;100467.00;;;;10054386;29;20299;-78
2022/02/20 06:10:17;;;;;;;18.70;3.77;;;;;8.50;100460.00;;;;10043898;29;20244;-78
2022/02/20 06:15:48;;;;;;;15.50;3.60;;;;;8.60;100471.00;;;;10035903;29;20201;-78
2022/02/20 06:21:14;;;;;;;13.00;3.37;;;;;8.70;100477.00;;;;9993994;29;20213;-79
2022/02/20 06:26:36;;;;;;;13.43;3.83;;;;;8.70;100497.00;;;;10021102;29;20212;-78
2022/02/20 06:31:40;;;;;;;15.33;3.70;;;;;8.70;100493.00;;;;10065683;29;20212;-79
2022/02/20 06:36:43;;;;;;;10.73;3.43;;;;;8.70;100485.00;;;;10049550;29;20197;-78
2022/02/20 06:41:46;;;;;;;14.17;3.50;;;;;8.80;100501.00;;;;10036090;29;20284;-78
2022/02/20 06:46:49;;;;;;;14.27;3.37;;;;;8.70;100495.00;;;;10011962;29;20198;-78
2022/02/20 06:52:11;;;;;;;12.30;3.70;;;;;8.70;100475.00;;;;10024515;29;20226;-79
2022/02/20 06:57:26;;;;;;;12.53;3.30;;;;;8.70;100497.00;;;;10038441;29;20245;-79
2022/02/20 07:02:27;;;;;;;17.00;4.03;;;;;8.70;100501.00;;;;10034049;29;20257;-79
2022/02/20 07:07:29;;;;;;;14.90;3.70;;;;;8.60;100500.00;;;;10034074;29;20205;-79
2022/02/20 07:12:31;;;;;;;13.77;3.57;;;;;8.60;100494.00;;;;10017038;29;20217;-80
2022/02/20 07:17:33;;;;;;;16.03;4.87;;;;;8.70;100497.00;;;;10016893;29;20748;-79
2022/02/20 07:22:36;;;;;;;22.40;3.90;;;;;8.60;100496.00;;;;10030935;29;20251;-80
2022/02/20 07:27:40;;;;;;;14.43;3.47;;;;;8.60;100521.00;;;;10009156;29;20573;-79
2022/02/20 07:32:41;;;;;;;15.73;3.27;;;;;8.60;100497.00;;;;10004978;29;20249;-79
2022/02/20 07:37:43;;;;;;;17.77;3.47;;;;;8.60;100502.00;;;;10009090;29;20265;-79
2022/02/20 07:42:45;;;;;;;10.97;3.50;;;;;8.70;100502.00;;;;10012133;29;20196;-79
2022/02/20 07:47:59;;;;;;;14.77;3.33;;;;;8.80;100480.00;;;;10040051;29;20201;-79
2022/02/20 07:53:04;;;;;;;14.77;3.57;;;;;8.90;100476.00;;;;10017653;29;20220;-80
2022/02/20 07:58:10;;;;;;;10.00;3.63;;;;;8.90;100468.00;;;;10040359;29;20240;-79
2022/02/20 08:03:12;;;;;;;11.13;2.40;;;;;8.90;100478.00;;;;10018810;29;20227;-79
2022/02/20 08:08:14;;;;;;;9.53;3.00;;;;;9.00;100484.00;;;;10027578;29;20295;-79
2022/02/20 08:13:16;;;;;;;8.10;2.23;;;;;9.00;100490.00;;;;10036608;29;20240;-79
2022/02/20 08:18:21;;;;;;;11.87;3.10;;;;;9.00;100503.00;;;;10034534;29;20193;-79
2022/02/20 08:23:26;;;;;;;13.10;3.07;;;;;9.10;100477.00;;;;10029360;29;20256;-80
2022/02/20 08:28:27;;;;;;;13.37;3.10;;;;;9.00;100507.00;;;;10036381;29;20721;-79
2022/02/20 08:33:30;;;;;;;13.13;2.33;;;;;9.00;100508.00;;;;9990618;29;20220;-79
2022/02/20 08:38:49;;;;;;;10.13;3.50;;;;;9.00;100517.00;;;;10022992;29;20240;-80
2022/02/20 08:43:51;;;;;;;14.00;3.20;;;;;9.20;100518.00;;;;9995131;29;20198;-80
2022/02/20 08:48:53;;;;;;;15.53;3.60;;;;;9.10;100502.00;;;;10021303;29;20272;-80
2022/02/20 08:53:55;;;;;;;14.37;3.33;;;;;9.40;100493.00;;;;10000283;29;20217;-80
2022/02/20 08:58:59;;;;;;;14.40;3.50;;;;;9.60;100488.00;;;;10024247;29;20201;-80
2022/02/20 09:04:03;;;;;;;14.53;3.63;;;;;9.70;100495.00;;;;10033466;29;20197;-80
2022/02/20 09:09:05;;;;;;;16.23;3.70;;;;;9.80;100476.00;;;;10000534;29;20228;-79
2022/02/20 09:14:07;;;;;;;11.30;3.47;;;;;9.90;100480.00;;;;10020375;29;20228;-79
2022/02/20 09:19:09;;;;;;;18.17;3.00;;;;;9.70;100470.00;;;;10039220;29;20192;-79
2022/02/20 09:24:11;;;;;;;7.57;1.87;;;;;9.60;100467.00;;;;10051787;29;20701;-80
2022/02/20 09:29:17;;;;;;;8.37;2.53;;;;;9.60;100478.00;;;;10045749;29;20672;-80
2022/02/20 09:34:23;;;;;;;7.10;2.50;;;;;9.60;100475.00;;;;10036868;29;20689;-81
2022/02/20 09:39:28;;;;;;;14.93;3.83;;;;;9.80;100473.00;;;;10017285;29;20220;-80
2022/02/20 09:44:30;;;;;;;14.13;2.50;;;;;10.00;100452.00;;;;10035719;29;20243;-79
2022/02/20 09:49:38;;;;;;;12.77;3.43;;;;;10.30;100462.00;;;;10033967;29;20261;-80
2022/02/20 09:54:40;;;;;;;10.43;2.73;;;;;10.40;100454.00;;;;10058361;29;20209;-79
2022/02/20 09:59:42;;;;;;;16.63;3.40;;;;;10.40;100481.00;;;;10034756;29;20185;-80
2022/02/20 10:04:47;;;;;;;12.53;2.60;;;;;10.60;100464.00;;;;10026488;29;20280;-79
2022/02/20 10:09:51;;;;;;;19.63;3.63;;;;;10.70;100453.00;;;;10002142;29;20198;-79
2022/02/20 10:14:56;;;;;;;12.33;3.40;;;;;10.70;100460.00;;;;10058562;29;20639;-78
2022/02/20 10:20:01;;;;;;;13.60;3.20;;;;;10.70;100453.00;;;;10012725;29;20221;-78
2022/02/20 10:25:23;;;;;;;16.37;3.80;;;;;10.80;100461.00;;;;10043796;29;20227;-79
2022/02/20 10:30:44;;;;;;;15.23;3.53;;;;;10.80;100448.00;;;;10009032;29;20245;-80
2022/02/20 10:35:49;;;;;;;13.93;2.90;;;;;10.70;100440.00;;;;10004267;29;20201;-80
2022/02/20 10:40:56;;;;;;;13.57;3.30;;;;;10.70;100437.00;;;;10038997;29;20200;-79
2022/02/20 10:46:11;;;;;;;16.17;4.27;;;;;10.70;100436.00;;;;10000763;29;20592;-80
2022/02/20 10:51:15;;;;;;;18.60;4.37;;;;;10.90;100464.00;;;;10025375;29;20270;-79
2022/02/20 10:56:17;;;;;;;12.37;3.87;;;;;10.90;100470.00;;;;10014596;29;20821;-80
2022/02/20 11:01:26;;;;;;;22.10;4.40;;;;;10.90;100452.00;;;;10008091;29;20217;-80
2022/02/20 11:06:31;;;;;;;23.07;4.83;;;;;10.70;100438.00;;;;10019256;29;20216;-80
2022/02/20 11:11:36;;;;;;;25.27;4.70;;;;;10.60;100430.00;;;;10044295;29;20256;-79
2022/02/20 11:16:40;;;;;;;20.27;4.90;;;;;10.80;100427.00;;;;10046742;29;20254;-79
2022/02/20 11:21:45;;;;;;;33.23;5.70;;;;;10.90;100410.00;;;;10008158;29;20434;-78
2022/02/20 11:26:48;;;;;;;25.17;4.63;;;;;10.80;100406.00;;;;10026880;29;20614;-79
2022/02/20 11:31:50;;;;;;;19.00;4.50;;;;;10.60;100394.00;;;;9997991;29;20245;-79
2022/02/20 11:36:56;;;;;;;26.10;6.10;;;;;10.70;100381.00;;;;10003871;29;20670;-78
2022/02/20 11:42:16;;;;;;;21.13;4.43;;;;;10.90;100376.00;;;;10028033;29;20241;-80
2022/02/20 11:47:33;;;;;;;23.63;4.97;;;;;10.80;100369.00;;;;10011655;29;20226;-79
2022/02/20 11:52:54;;;;;;;24.77;5.37;;;;;10.70;100361.00;;;;10014852;29;20622;-79
2022/02/20 11:58:16;;;;;;;24.70;5.57;;;;;10.60;100359.00;;;;10025731;29;20209;-80
2022/02/20 12:03:19;;;;;;;23.73;5.03;;;;;10.50;100337.00;;;;10017411;29;20284;-80
2022/02/20 12:08:32;;;;;;;27.03;5.00;;;;;10.50;100335.00;;;;9997934;29;20576;-79
2022/02/20 12:13:34;;;;;;;26.30;6.13;;;;;10.60;100332.00;;;;10029128;29;20216;-80
2022/02/20 12:18:36;;;;;;;19.17;5.10;;;;;10.50;100335.00;;;;10005726;29;20226;-79
2022/02/20 12:23:49;;;;;;;19.00;4.50;;;;;10.40;100326.00;;;;10007463;29;20225;-79
2022/02/20 12:28:52;;;;;;;24.03;5.17;;;;;10.40;100300.00;;;;10036508;29;20205;-79
2022/02/20 12:33:54;;;;;;;21.73;5.67;;;;;10.50;100301.00;;;;10025530;29;20212;-80
2022/02/20 12:39:01;;;;;;;28.97;5.03;;;;;10.80;100279.00;;;;9995611;29;20208;-80
2022/02/20 12:44:03;;;;;;;30.60;6.00;;;;;10.80;100253.00;;;;9998730;29;20305;-79
2022/02/20 12:49:05;;;;;;;22.70;6.30;;;;;10.80;100262.00;;;;10023909;29;20201;-79
2022/02/20 12:54:07;;;;;;;23.40;6.17;;;;;10.70;100250.00;;;;10027193;29;20213;-80
2022/02/20 12:59:09;;;;;;;21.27;5.07;;;;;10.60;100228.00;;;;10047511;29;20256;-81
2022/02/20 13:04:11;;;;;;;22.93;4.73;;;;;10.50;100214.00;;;;10022654;29;20360;-80
2022/02/20 13:09:13;;;;;;;27.80;6.03;;;;;10.60;100196.00;;;;9983505;29;20257;-81
2022/02/20 13:14:15;;;;;;;20.13;4.77;;;;;10.70;100190.00;;;;10024149;29;20213;-81
2022/02/20 13:19:31;;;;;;;24.83;4.60;;;;;10.70;100191.00;;;;10008110;29;20209;-81
2022/02/20 13:24:52;;;;;;;26.03;6.27;;;;;10.50;100203.00;;;;10022190;29;20580;-81
2022/02/20 13:29:54;;;;;;;20.93;5.67;;;;;10.50;100183.00;;;;9974608;29;20266;-81
2022/02/20 13:34:57;;;;;;;28.27;6.07;;;;;10.40;100165.00;;;;10032928;29;20597;-81
2022/02/20 13:39:59;;;;;;;21.77;4.77;;;;;10.30;100157.00;;;;10010665;29;20269;-81
2022/02/20 13:45:05;;;;;;;23.20;4.77;;;;;10.20;100137.00;;;;10009221;29;20197;-81
2022/02/20 13:50:17;;;;;;;28.53;5.80;;;;;10.30;100125.00;;;;10012346;29;20253;-81
2022/02/20 13:55:25;;;;;;;23.20;5.53;;;;;10.30;100132.00;;;;10010799;29;20278;-80
2022/02/20 14:00:28;;;;;;;17.50;4.90;;;;;10.50;100130.00;;;;10020357;29;20189;-81
2022/02/20 14:05:35;;;;;;;26.27;5.03;;;;;10.40;100181.00;;;;10020092;29;20543;-80
2022/02/20 14:10:57;;;;;;;22.67;5.40;;;;;10.40;100163.00;;;;10021601;29;20198;-80
2022/02/20 14:16:01;;;;;;;28.07;4.70;;;;;10.40;100137.00;;;;10036611;29;20598;-81
2022/02/20 14:21:14;;;;;;;21.07;5.10;;;;;10.30;100104.00;;;;10035084;29;20221;-81
2022/02/20 14:26:24;;;;;;;19.77;4.17;;;;;10.30;100065.00;;;;10023956;29;20235;-81
2022/02/20 14:31:31;;;;;;;21.77;5.30;;;;;10.30;100038.00;;;;9987555;29;20209;-81
2022/02/20 14:36:40;;;;;;;18.20;4.30;;;;;10.20;100039.00;;;;10015212;29;20205;-81
2022/02/20 14:41:41;;;;;;;17.73;5.00;;;;;10.30;100004.00;;;;10032422;29;20197;-81
2022/02/20 14:46:44;;;;;;;22.77;5.33;;;;;10.30;100004.00;;;;10032524;29;20193;-81
2022/02/20 14:51:47;;;;;;;21.93;4.87;;;;;10.30;99986.00;;;;10013781;29;20213;-80
2022/02/20 14:56:49;;;;;;;20.27;5.17;;;;;10.20;99963.00;;;;10028049;29;20194;-80
2022/02/20 15:01:59;;;;;;;21.00;4.73;;;;;10.10;99948.00;;;;10007664;29;20185;-80
2022/02/20 15:07:01;;;;;;;27.37;5.07;;;;;10.00;99942.00;;;;10029574;29;20218;-80
2022/02/20 15:12:25;;;;;;;24.00;5.07;;;;;9.90;99942.00;;;;10010360;29;20903;-81
2022/02/20 15:17:28;;;;;;;25.03;4.97;;;;;9.90;99929.00;;;;10029415;29;20209;-79
2022/02/20 15:22:30;;;;;;;27.27;5.50;;;;;9.90;99924.00;;;;9992423;29;20252;-80
2022/02/20 15:27:36;;;;;;;28.00;5.50;;;;;9.90;99910.00;;;;10006976;29;20208;-80
2022/02/20 15:32:42;;;;;;;20.80;5.67;;;;;9.80;99908.00;;;;10029396;29;20217;-80
2022/02/20 15:37:46;;;;;;;25.13;4.87;;;;;9.80;99880.00;;;;10029257;29;20212;-80
2022/02/20 15:42:48;;;;;;;20.97;5.00;;;;;9.80;99904.00;;;;10059619;29;20231;-80
2022/02/20 15:47:55;;;;;;;20.60;4.23;;;;;9.80;99897.00;;;;10045155;29;20541;-80
2022/02/20 15:52:57;;;;;;;23.13;4.73;;;;;9.80;99905.00;;;;10015548;29;20305;-79
2022/02/20 15:57:59;;;;;;;17.23;4.40;;;;;9.80;99892.00;;;;10004635;29;20205;-80
2022/02/20 16:03:01;;;;;;;29.37;5.07;;;;;9.70;99897.00;;;;10028734;29;20205;-80
2022/02/20 16:08:03;;;;;;;15.87;5.03;;;;;9.70;99879.00;;;;10029503;29;20208;-80
2022/02/20 16:13:05;;;;;;;20.10;4.77;;;;;9.70;99893.00;;;;10018458;29;20221;-80
2022/02/20 16:18:07;;;;;;;17.43;4.10;;;;;9.60;99868.00;;;;10013015;29;20228;-79
2022/02/20 16:23:09;;;;;;;13.70;4.07;;;;;9.60;99873.00;;;;10013696;29;20225;-80
2022/02/20 16:28:11;;;;;;;16.57;4.70;;;;;9.60;99862.00;;;;10032642;29;20230;-80
2022/02/20 16:33:13;;;;;;;21.57;4.63;;;;;9.60;99863.00;;;;10025671;29;20225;-79
2022/02/20 16:38:17;;;;;;;13.20;4.20;;;;;9.60;99850.00;;;;10016059;29;20197;-79
2022/02/20 16:43:19;;;;;;;17.53;4.03;;;;;9.60;99826.00;;;;10030338;29;20292;-80
2022/02/20 16:48:21;;;;;;;21.53;4.77;;;;;9.50;99822.00;;;;10017206;29;20292;-79
2022/02/20 16:53:23;;;;;;;17.30;5.47;;;;;9.50;99799.00;;;;10017580;29;20680;-78
2022/02/20 16:58:25;;;;;;;18.30;4.33;;;;;9.60;99790.00;;;;10022258;29;20258;-78
2022/02/20 17:03:28;;;;;;;19.50;4.47;;;;;9.60;99763.00;;;;10008378;29;20216;-78
2022/02/20 17:08:30;;;;;;;14.93;4.30;;;;;9.60;99763.00;;;;10035802;29;20212;-79
2022/02/20 17:13:33;;;;;;;22.40;4.63;;;;;9.70;99755.00;;;;10021170;29;20304;-79
2022/02/20 17:18:35;;;;;;;25.73;5.03;;;;;9.90;99746.00;;;;10028565;29;20200;-79
2022/02/20 17:23:38;;;;;;;23.17;5.67;;;;;10.00;99727.00;;;;10030077;29;20228;-79
2022/02/20 17:28:40;;;;;;;25.47;5.10;;;;;10.10;99722.00;;;;10044401;29;20554;-78
2022/02/20 17:33:43;;;;;;;20.00;4.43;;;;;10.20;99703.00;;;;10032017;29;20229;-78
2022/02/20 17:38:45;;;;;;;21.63;4.63;;;;;10.30;99710.00;;;;10034650;29;20233;-79
2022/02/20 17:43:47;;;;;;;19.70;5.63;;;;;10.40;99697.00;;;;10014644;29;20201;-79
2022/02/20 17:48:49;;;;;;;16.30;3.93;;;;;10.40;99684.00;;;;10031741;29;20205;-79
2022/02/20 17:53:53;;;;;;;15.80;3.87;;;;;10.40;99660.00;;;;10018125;29;20289;-79
2022/02/20 17:58:56;;;;;;;21.90;4.87;;;;;10.40;99653.00;;;;10016254;29;20205;-79
2022/02/20 18:03:58;;;;;;;16.40;3.20;;;;;10.40;99632.00;;;;10002694;29;20209;-82
2022/02/20 18:09:00;;;;;;;16.67;3.77;;;;;10.50;99626.00;;;;10019855;29;20223;-80
2022/02/20 18:14:03;;;;;;;14.40;3.70;;;;;10.50;99622.00;;;;10030716;29;20809;-81
2022/02/20 18:19:06;;;;;;;15.67;3.57;;;;;10.60;99617.00;;;;10034208;29;20691;-80
2022/02/20 18:24:11;;;;;;;25.77;4.77;;;;;10.60;99604.00;;;;9982207;24;20329;-90
2022/02/20 18:29:14;;;;;;;14.70;3.40;;;;;10.60;99579.00;;;;9986889;29;20211;-90
2022/02/20 18:34:19;;;;;;;20.70;3.80;;;;;10.70;99569.00;;;;9986038;29;20209;-89
2022/02/20 18:39:23;;;;;;;13.73;3.27;;;;;10.70;99550.00;;;;9973243;29;20206;-90
2022/02/20 18:44:25;;;;;;;18.33;5.03;;;;;10.80;99550.00;;;;9980118;29;20742;-90
2022/02/20 18:49:31;;;;;;;17.70;3.73;;;;;10.80;99544.00;;;;10004371;29;20722;-91
2022/02/20 18:54:35;;;;;;;11.53;3.83;;;;;10.90;99531.00;;;;9984651;29;20213;-90
2022/02/20 18:59:38;;;;;;;13.27;3.33;;;;;10.90;99518.00;;;;9958936;29;20202;-92
2022/02/20 19:04:45;;;;;;;15.70;4.17;;;;;11.00;99486.00;;;;9989218;29;20182;-91
2022/02/20 19:09:51;;;;;;;13.43;3.83;;;;;11.00;99475.00;;;;9983531;29;20224;-90
2022/02/20 19:14:56;;;;;;;17.90;3.97;;;;;10.80;99426.00;;;;10002017;29;20249;-91
2022/02/20 19:20:00;;;;;;;10.07;2.10;;;;;10.80;99434.00;;;;9968402;29;20198;-90
2022/02/20 19:25:05;;;;;;;16.10;4.77;;;;;10.90;99390.00;;;;9962369;29;20706;-90
2022/02/20 19:30:14;;;;;;;14.70;3.97;;;;;10.80;99358.00;;;;9971460;29;20205;-90
2022/02/20 19:35:17;;;;;;;12.80;3.80;;;;;10.60;99372.00;;;;9983158;29;20210;-89
2022/02/20 19:40:22;;;;;;;16.90;3.87;;;;;10.30;99341.00;;;;9970813;29;20238;-88
2022/02/20 19:45:25;;;;;;;15.37;3.73;;;;;10.20;99325.00;;;;9999980;29;20209;-88
2022/02/20 19:50:27;;;;;;;16.03;3.80;;;;;10.00;99292.00;;;;9985094;29;20705;-88
2022/02/20 19:55:30;;;;;;;15.10;4.07;;;;;9.90;99267.00;;;;9999196;29;20283;-88
2022/02/20 20:00:35;;;;;;;16.00;3.87;;;;;9.90;99267.00;;;;9979780;29;20202;-88
2022/02/20 20:05:39;;;;;;;12.80;2.77;;;;;9.90;99258.00;;;;10005545;29;20218;-88
2022/02/20 20:10:41;;;;;;;12.23;3.60;;;;;9.90;99235.00;;;;9993095;29;20194;-87
2022/02/20 20:15:44;;;;;;;9.00;3.20;;;;;9.80;99227.00;;;;9986500;29;20214;-88
2022/02/20 20:20:46;;;;;;;14.43;4.40;;;;;9.80;99198.00;;;;9978363;29;20230;-88
2022/02/20 20:25:49;;;;;;;12.30;3.10;;;;;9.70;99184.00;;;;10004770;29;20225;-88
2022/02/20 20:31:00;;;;;;;13.03;3.37;;;;;9.70;99157.00;;;;9969981;29;20327;-87
2022/02/20 20:36:04;;;;;;;14.77;3.50;;;;;9.70;99166.00;;;;9993466;29;20274;-88
2022/02/20 20:41:06;;;;;;;15.17;4.07;;;;;9.70;99162.00;;;;9998507;29;20201;-88
2022/02/20 20:46:08;;;;;;;13.27;3.80;;;;;9.70;99135.00;;;;9984209;29;20198;-88
2022/02/20 20:51:12;;;;;;;16.93;4.20;;;;;9.70;99131.00;;;;9999747;29;20226;-88
2022/02/20 20:56:15;;;;;;;12.67;3.00;;;;;9.60;99138.00;;;;9977334;29;20202;-89
2022/02/20 21:01:17;;;;;;;13.93;3.83;;;;;9.60;99119.00;;;;10004096;29;20198;-89
2022/02/20 21:06:19;;;;;;;16.10;3.63;;;;;9.60;99098.00;;;;10005702;29;20219;-89
2022/02/20 21:11:21;;;;;;;11.03;4.40;;;;;9.60;99123.00;;;;9961846;29;20206;-89
2022/02/20 21:16:31;;;;;;;15.43;4.30;;;;;9.60;99106.00;;;;9972787;29;20217;-89
2022/02/20 21:21:34;;;;;;;13.50;3.23;;;;;9.60;99100.00;;;;9982940;29;20238;-89
2022/02/20 21:26:38;;;;;;;11.50;2.60;;;;;9.60;99059.00;;;;9976548;29;20194;-88
2022/02/20 21:31:40;;;;;;;10.73;2.60;;;;;9.60;99092.00;;;;10003896;29;20221;-88
2022/02/20 21:36:45;;;;;;;10.17;3.63;;;;;9.60;99135.00;;;;10012418;29;20480;-89
2022/02/20 21:41:53;;;;;;;13.17;3.43;;;;;9.60;99131.00;;;;9991289;29;20270;-89
2022/02/20 21:47:01;;;;;;;8.60;2.90;;;;;9.60;99135.00;;;;9972823;29;20678;-89
2022/02/20 21:52:12;;;;;;;6.00;2.47;;;;;9.50;99182.00;;;;9969194;29;20199;-89
2022/02/20 21:57:27;;;;;;;8.10;2.23;;;;;9.60;99215.00;;;;9991684;29;20228;-90
2022/02/20 22:02:31;;;;;;;3.40;1.00;;;;;8.40;99269.00;;;;9999331;29;20240;-89
2022/02/20 22:07:33;;;;;;;3.27;1.00;;;;;6.80;99390.00;;;;9980523;29;20210;-89
2022/02/20 22:12:38;;;;;;;3.77;1.00;;;;;6.20;99361.00;;;;10007921;29;20693;-89
2022/02/20 22:17:40;;;;;;;3.07;0.97;;;;;5.90;99347.00;;;;9978615;29;20204;-90
2022/02/20 22:22:44;;;;;;;5.37;1.07;;;;;5.80;99346.00;;;;9986296;29;20635;-89
2022/02/20 22:27:47;;;;;;;4.67;0.97;;;;;5.70;99351.00;;;;9975669;29;20199;-89
2022/02/20 22:32:51;;;;;;;7.10;0.83;;;;;5.70;99326.00;;;;9986641;29;20214;-89
2022/02/20 22:37:53;;;;;;;4.93;0.70;;;;;5.80;99334.00;;;;9972146;29;20233;-89
2022/02/20 22:42:55;;;;;;;11.23;1.60;;;;;5.80;99360.00;;;;10003443;29;20206;-89
2022/02/20 22:47:57;;;;;;;3.77;1.23;;;;;5.80;99365.00;;;;9988534;29;20198;-89
2022/02/20 22:53:00;;;;;;;10.17;2.77;;;;;5.80;99384.00;;;;9976265;29;20305;-89
2022/02/20 22:58:03;;;;;;;12.10;2.17;;;;;5.80;99396.00;;;;9986223;29;20892;-90
2022/02/20 23:03:05;;;;;;;4.47;1.43;;;;;5.80;99415.00;;;;9993174;29;20292;-89
2022/02/20 23:08:09;;;;;;;8.27;1.63;;;;;5.80;99414.00;;;;9966298;29;20202;-89
2022/02/20 23:13:13;;;;;;;10.07;1.73;;;;;5.80;99448.00;;;;9986764;29;20213;-90
2022/02/20 23:18:16;;;;;;;4.20;1.03;;;;;5.80;99415.00;;;;9997575;29;20254;-89
2022/02/20 23:23:19;;;;;;;7.27;1.73;;;;;5.90;99431.00;;;;10015491;29;20221;-90
2022/02/20 23:28:30;;;;;;;11.43;2.10;;;;;6.10;99458.00;;;;10009938;29;20206;-90
2022/02/20 23:33:35;;;;;;;11.77;1.80;;;;;6.20;99473.00;;;;9981120;29;20229;-89
2022/02/20 23:38:42;;;;;;;6.03;1.80;;;;;6.30;99506.00;;;;9971818;29;20194;-90
2022/02/20 23:43:48;;;;;;;16.07;2.30;;;;;6.40;99508.00;;;;9964698;29;20224;-90
2022/02/20 23:48:53;;;;;;;10.77;2.13;;;;;6.40;99509.00;;;;10016576;29;20542;-90
2022/02/20 23:54:00;;;;;;;7.60;1.60;;;;;6.40;99502.00;;;;10003067;29;20282;-89
2022/02/20 23:59:09;;;;;;;8.47;2.07;;;;;6.40;99535.00;;;;9970226;29;20206;-89
